createdAt,value
2019-02-21T00:01:07.032Z,0
2019-02-21T00:06:06.789Z,0
2019-02-21T00:11:07.148Z,0
2019-02-21T00:16:07.033Z,0
2019-02-21T00:20:06.901Z,0
2019-02-21T00:25:07.528Z,0
2019-02-21T00:30:08.265Z,0
2019-02-21T00:35:07.798Z,0
2019-02-21T00:40:07.355Z,0
2019-02-21T00:45:09.433Z,0
2019-02-21T00:50:06.591Z,0
2019-02-21T00:55:07.113Z,0
2019-02-21T00:59:07.518Z,0
2019-02-21T01:04:07.563Z,0
2019-02-21T01:09:07.505Z,0
2019-02-21T01:14:07.828Z,0
2019-02-21T01:19:07.115Z,0
2019-02-21T01:24:07.704Z,0
2019-02-21T01:29:06.898Z,0
2019-02-21T01:34:07.460Z,0
2019-02-21T01:38:07.111Z,0
2019-02-21T01:43:06.385Z,0
2019-02-21T01:48:06.644Z,0
2019-02-21T01:53:06.613Z,0
2019-02-21T01:58:06.409Z,0
2019-02-21T02:03:09.944Z,0
2019-02-21T02:08:08.398Z,0
2019-02-21T02:13:07.764Z,0
2019-02-21T02:17:07.704Z,0
2019-02-21T02:22:06.613Z,0
2019-02-21T02:27:06.523Z,0
2019-02-21T02:32:10.073Z,0
2019-02-21T02:37:07.002Z,0
2019-02-21T02:42:07.300Z,0
2019-02-21T02:47:07.008Z,0
2019-02-21T02:52:06.963Z,0
2019-02-21T02:56:07.234Z,0
2019-02-21T03:01:06.596Z,0
2019-02-21T03:06:06.629Z,0
2019-02-21T03:11:07.022Z,0
2019-02-21T03:16:06.493Z,0
2019-02-21T03:21:06.553Z,0
2019-02-21T03:26:06.600Z,0
2019-02-21T03:31:07.332Z,0
2019-02-21T03:35:07.574Z,0
2019-02-21T03:40:07.478Z,0
2019-02-21T03:45:08.239Z,0
2019-02-21T03:50:07.998Z,0
2019-02-21T03:55:07.152Z,0
2019-02-21T04:00:08.968Z,0
2019-02-21T04:05:06.615Z,0
2019-02-21T04:10:06.883Z,0
2019-02-21T04:14:07.103Z,0
2019-02-21T04:19:06.839Z,0
2019-02-21T04:24:07.005Z,0
2019-02-21T04:29:06.537Z,0
2019-02-21T04:34:06.414Z,0
2019-02-21T04:39:07.810Z,0
2019-02-21T04:44:06.403Z,0
2019-02-21T04:49:07.406Z,0
2019-02-21T04:53:06.783Z,0
2019-02-21T04:58:06.474Z,0
2019-02-21T05:03:07.011Z,0
2019-02-21T05:08:06.730Z,0
2019-02-21T05:13:06.510Z,0
2019-02-21T05:18:06.963Z,0
2019-02-21T05:23:06.447Z,0
2019-02-21T05:28:07.117Z,0
2019-02-21T05:32:07.529Z,0
2019-02-21T05:37:06.557Z,0
2019-02-21T05:42:07.289Z,0.83
2019-02-21T05:47:07.254Z,2.5
2019-02-21T05:52:07.094Z,5.83
2019-02-21T05:57:06.986Z,15.83
2019-02-21T06:02:06.846Z,34.17
2019-02-21T06:07:10.576Z,65.83
2019-02-21T06:11:07.253Z,115
2019-02-21T06:16:06.996Z,190
2019-02-21T06:21:07.026Z,295.83
2019-02-21T06:26:07.181Z,437.5
2019-02-21T06:31:06.743Z,625.83
2019-02-21T06:36:06.770Z,754.17
2019-02-21T06:41:07.868Z,1076.67
2019-02-21T06:46:07.068Z,1270
2019-02-21T06:50:07.698Z,1616.67
2019-02-21T06:55:07.317Z,2359.17
2019-02-21T06:56:06.409Z,2359.17
2019-02-21T07:00:08.709Z,2733.33
2019-02-21T07:05:07.224Z,2283.33
2019-02-21T07:10:06.935Z,2375
2019-02-21T07:15:09.119Z,4069.17
2019-02-21T07:20:07.145Z,4918.33
2019-02-21T07:25:07.858Z,4843.33
2019-02-21T07:29:07.248Z,5778.33
2019-02-21T07:34:07.523Z,6192.5
2019-02-21T07:35:07.270Z,6192.5
2019-02-21T07:39:20.682Z,5888.33
2019-02-21T07:44:13.386Z,6257.5
2019-02-21T07:49:06.619Z,6027.5
2019-02-21T07:54:06.502Z,5601.67
2019-02-21T07:59:06.397Z,5334.17
2019-02-21T08:04:06.842Z,3960
2019-02-21T08:08:09.699Z,3399.17
2019-02-21T08:13:07.292Z,4950
2019-02-21T08:18:06.454Z,6589.17
2019-02-21T08:23:07.274Z,11248.33
2019-02-21T08:28:07.153Z,13270.83
2019-02-21T08:33:06.897Z,12337.5
2019-02-21T08:38:06.771Z,10681.67
2019-02-21T08:43:06.988Z,9809.17
2019-02-21T08:47:07.179Z,11039.17
2019-02-21T08:52:07.554Z,13333.33
2019-02-21T08:57:06.872Z,14519.17
2019-02-21T09:02:07.015Z,12300
2019-02-21T09:07:06.811Z,9180
2019-02-21T09:12:07.107Z,7365.83
2019-02-21T09:17:07.064Z,7568.33
2019-02-21T09:22:07.077Z,-1
2019-02-21T09:26:07.327Z,7685.83
2019-02-21T09:31:07.979Z,5918.33
2019-02-21T09:36:07.258Z,6232.5
2019-02-21T09:41:07.340Z,7058.33
2019-02-21T09:46:07.303Z,7040.83
2019-02-21T09:51:07.837Z,5715
2019-02-21T09:56:07.084Z,5945
2019-02-21T10:00:09.395Z,8248.33
2019-02-21T10:05:07.357Z,9935
2019-02-21T10:10:08.566Z,12181.67
2019-02-21T10:15:08.168Z,11329.17
2019-02-21T10:20:08.020Z,13433.33
2019-02-21T10:25:07.427Z,15305
2019-02-21T10:30:08.199Z,16028.33
2019-02-21T10:35:06.468Z,16165
2019-02-21T10:39:07.373Z,17318.33
2019-02-21T10:40:07.316Z,17318.33
2019-02-21T10:44:06.533Z,17733.33
2019-02-21T10:49:07.188Z,17021.67
2019-02-21T10:54:06.518Z,19618.33
2019-02-21T10:59:07.328Z,23506.67
2019-02-21T11:04:07.264Z,21635.83
2019-02-21T11:09:07.742Z,23181.67
2019-02-21T11:13:07.069Z,22322.5
2019-02-21T11:18:06.930Z,23615
2019-02-21T11:19:07.035Z,23615
2019-02-21T11:23:07.840Z,34306.66
2019-02-21T11:28:07.126Z,26258.33
2019-02-21T11:33:06.965Z,25415.83
2019-02-21T11:38:06.863Z,29323.33
2019-02-21T11:43:07.729Z,25711.67
2019-02-21T11:48:08.503Z,19937.5
2019-02-21T11:52:11.322Z,22726.67
2019-02-21T11:57:06.568Z,25034.17
2019-02-21T12:02:06.772Z,24564.17
2019-02-21T12:07:06.736Z,14065.83
2019-02-21T12:12:07.122Z,11964.17
2019-02-21T12:17:07.418Z,15077.5
2019-02-21T12:22:06.742Z,13158.33
2019-02-21T12:27:06.598Z,12446.67
2019-02-21T12:31:07.634Z,12954.17
2019-02-21T12:32:06.721Z,12954.17
2019-02-21T12:36:06.734Z,15055
2019-02-21T12:41:07.109Z,10839.17
2019-02-21T12:46:07.602Z,12559.17
2019-02-21T12:51:06.794Z,15786.67
2019-02-21T12:56:06.663Z,17506.67
2019-02-21T13:01:06.824Z,29160
2019-02-21T13:06:06.704Z,21430.83
2019-02-21T13:10:08.067Z,30835
2019-02-21T13:15:08.167Z,14583.33
2019-02-21T13:20:06.594Z,11696.67
2019-02-21T13:25:06.523Z,12098.33
2019-02-21T13:30:08.439Z,11643.33
2019-02-21T13:35:07.144Z,13233.33
2019-02-21T13:40:07.311Z,22180.83
2019-02-21T13:44:07.152Z,12440
2019-02-21T13:49:07.412Z,14460
2019-02-21T13:54:07.385Z,14711.67
2019-02-21T13:59:07.925Z,10854.17
2019-02-21T14:04:07.234Z,8475.83
2019-02-21T14:09:06.773Z,5649.17
2019-02-21T14:14:06.550Z,6336.67
2019-02-21T14:18:07.520Z,5493.33
2019-02-21T14:23:06.814Z,6384.17
2019-02-21T14:28:07.354Z,5198.33
2019-02-21T14:33:06.795Z,4224.17
2019-02-21T14:38:06.739Z,3132.5
2019-02-21T14:43:07.340Z,2660.83
2019-02-21T14:48:07.605Z,2796.67
2019-02-21T14:52:07.323Z,3755.83
2019-02-21T14:57:06.523Z,3065.83
2019-02-21T15:02:06.925Z,2129.17
2019-02-21T15:07:07.114Z,2312.5
2019-02-21T15:12:06.463Z,2126.67
2019-02-21T15:17:07.198Z,1723.33
2019-02-21T15:22:06.473Z,1592.5
2019-02-21T15:27:09.847Z,1007.5
2019-02-21T15:31:07.212Z,591.67
2019-02-21T15:36:07.024Z,630
2019-02-21T15:41:07.886Z,810
2019-02-21T15:46:07.906Z,740.83
2019-02-21T15:51:06.816Z,727.5
2019-02-21T15:56:07.264Z,764.17
2019-02-21T16:01:08.274Z,672.5
2019-02-21T16:05:07.078Z,565.83
2019-02-21T16:10:07.444Z,525.83
2019-02-21T16:15:08.573Z,400
2019-02-21T16:20:07.793Z,306.67
2019-02-21T16:25:07.068Z,226.67
2019-02-21T16:30:08.311Z,175.83
2019-02-21T16:35:07.888Z,121.67
2019-02-21T16:39:07.683Z,90.83
2019-02-21T16:44:08.207Z,43.33
2019-02-21T16:49:06.950Z,25.83
2019-02-21T16:54:07.078Z,12.5
2019-02-21T16:59:07.124Z,5
2019-02-21T17:04:07.001Z,1.67
2019-02-21T17:09:08.075Z,0
2019-02-21T17:14:06.465Z,0
2019-02-21T17:18:07.185Z,0
2019-02-21T17:23:07.045Z,0
2019-02-21T17:28:06.904Z,0
2019-02-21T17:33:06.646Z,0
2019-02-21T17:38:06.559Z,0
2019-02-21T17:43:06.906Z,0
2019-02-21T17:48:06.683Z,0
2019-02-21T17:52:07.239Z,0
2019-02-21T17:57:06.450Z,0
2019-02-21T18:02:06.682Z,0
2019-02-21T18:07:07.109Z,0
2019-02-21T18:12:07.355Z,0
2019-02-21T18:17:07.476Z,0
2019-02-21T18:22:07.188Z,0
2019-02-21T18:27:06.405Z,0
2019-02-21T18:31:07.391Z,0
2019-02-21T18:36:07.931Z,0
2019-02-21T18:41:06.426Z,0
2019-02-21T18:46:07.284Z,0
2019-02-21T18:51:07.478Z,0
2019-02-21T18:56:08.158Z,0
2019-02-21T19:01:07.540Z,0
2019-02-21T19:05:06.853Z,0
2019-02-21T19:10:07.189Z,0
2019-02-21T19:15:08.502Z,0
2019-02-21T19:20:06.686Z,0
2019-02-21T19:25:06.626Z,0
2019-02-21T19:30:07.435Z,0
2019-02-21T19:35:06.696Z,0
2019-02-21T19:39:07.263Z,0
2019-02-21T19:44:10.281Z,0
2019-02-21T19:49:07.345Z,0
2019-02-21T19:54:07.887Z,0
2019-02-21T19:59:07.103Z,0
2019-02-21T20:04:06.721Z,0
2019-02-21T20:09:07.030Z,0
2019-02-21T20:14:07.024Z,0
2019-02-21T20:18:07.111Z,0
2019-02-21T20:23:07.977Z,0
2019-02-21T20:24:06.471Z,0
2019-02-21T20:28:06.451Z,0
2019-02-21T20:33:07.434Z,0
2019-02-21T20:38:06.733Z,0
2019-02-21T20:43:07.952Z,0
2019-02-21T20:48:07.373Z,0
2019-02-21T20:53:08.050Z,0
2019-02-21T20:57:07.280Z,0
2019-02-21T21:02:07.639Z,0
2019-02-21T21:07:06.913Z,0
2019-02-21T21:12:07.121Z,0
2019-02-21T21:17:08.569Z,0
2019-02-21T21:22:07.679Z,0
2019-02-21T21:27:08.053Z,0
2019-02-21T21:32:06.834Z,0
2019-02-21T21:36:07.287Z,0
2019-02-21T21:41:06.697Z,0
2019-02-21T21:46:06.354Z,0
2019-02-21T21:51:07.365Z,0
2019-02-21T21:56:07.425Z,0
2019-02-21T22:01:06.753Z,0
2019-02-21T22:06:06.616Z,0
2019-02-21T22:10:07.122Z,0
2019-02-21T22:15:08.740Z,0
2019-02-21T22:16:06.504Z,0
2019-02-21T22:20:07.176Z,0
2019-02-21T22:25:07.329Z,0
2019-02-21T22:30:09.418Z,0
2019-02-21T22:35:06.777Z,0
2019-02-21T22:40:07.357Z,0
2019-02-21T22:45:08.301Z,0
2019-02-21T22:49:07.398Z,0
2019-02-21T22:54:06.379Z,0
2019-02-21T22:59:06.418Z,0
2019-02-21T23:04:07.137Z,0
2019-02-21T23:09:08.143Z,0
2019-02-21T23:14:07.058Z,0
2019-02-21T23:19:06.556Z,0
2019-02-21T23:24:06.890Z,0
2019-02-21T23:28:06.561Z,0
2019-02-21T23:33:06.691Z,0
2019-02-21T23:38:06.724Z,0
2019-02-21T23:43:07.039Z,0
2019-02-21T23:48:06.686Z,0
2019-02-21T23:53:06.589Z,0
2019-02-21T23:58:06.531Z,0
